createdAt,value
2022-12-18T06:17:10.044Z,0.00
2022-12-18T06:27:10.062Z,1.72
2022-12-18T06:37:10.016Z,4.06
2022-12-18T06:47:09.884Z,8.31
2022-12-18T06:57:09.984Z,7.41
2022-12-18T07:07:10.014Z,6.59
2022-12-18T07:17:10.201Z,6.25
2022-12-18T07:27:09.987Z,7.50
2022-12-18T07:37:10.198Z,9.21
2022-12-18T07:47:12.230Z,6.32
2022-12-18T07:57:33.764Z,6.56
2022-12-18T08:07:10.032Z,5.16
2022-12-18T08:17:10.047Z,6.92
2022-12-18T08:27:29.910Z,5.77
2022-12-18T08:37:09.938Z,9.04
2022-12-18T08:47:10.020Z,7.04
2022-12-18T08:57:10.294Z,6.88
2022-12-18T09:07:09.932Z,11.85
2022-12-18T09:17:10.211Z,8.24
2022-12-18T09:27:09.982Z,7.38
2022-12-18T09:37:10.023Z,6.86
2022-12-18T09:47:10.110Z,9.28
2022-12-18T09:57:10.068Z,10.03
2022-12-18T10:07:10.074Z,9.59
2022-12-18T10:17:10.064Z,8.05
2022-12-18T10:27:10.161Z,12.07
2022-12-18T10:37:10.121Z,13.37
2022-12-18T10:47:11.980Z,11.77
2022-12-18T10:57:10.218Z,12.65
2022-12-18T11:07:10.182Z,12.94
2022-12-18T11:17:25.280Z,10.70
2022-12-18T11:27:10.276Z,11.43
2022-12-18T11:37:10.299Z,12.02
2022-12-18T11:47:10.365Z,10.57
2022-12-18T11:57:10.286Z,15.75
2022-12-18T12:07:10.193Z,15.76
2022-12-18T12:17:10.255Z,19.76
2022-12-18T12:27:10.170Z,17.11
2022-12-18T12:37:10.385Z,18.07
2022-12-18T12:47:10.254Z,17.39
2022-12-18T12:57:10.173Z,14.44
2022-12-18T13:07:10.236Z,7.43
2022-12-18T13:17:10.437Z,10.76
2022-12-18T13:27:10.208Z,12.76
2022-12-18T13:37:10.213Z,12.71
2022-12-18T13:47:10.423Z,9.46
2022-12-18T13:57:10.497Z,8.47
2022-12-18T14:07:10.410Z,4.64
2022-12-18T14:17:10.458Z,6.00
2022-12-18T14:27:10.477Z,10.02
2022-12-18T14:37:10.398Z,7.71
2022-12-18T14:47:10.337Z,9.60
2022-12-18T14:57:10.267Z,10.21
2022-12-18T15:07:10.319Z,7.56
2022-12-18T15:17:10.350Z,6.09
2022-12-18T15:27:10.435Z,7.02
2022-12-18T15:37:10.333Z,8.47
2022-12-18T15:47:10.501Z,10.53
2022-12-18T15:57:10.383Z,12.81
2022-12-18T16:07:15.165Z,11.37
2022-12-18T16:17:10.468Z,9.09
2022-12-18T16:27:10.324Z,12.18
2022-12-18T16:37:10.374Z,12.68
2022-12-18T16:47:11.092Z,13.56
2022-12-18T16:57:10.497Z,11.18
2022-12-18T17:07:10.272Z,11.00
2022-12-18T17:17:22.823Z,15.86
2022-12-18T17:27:10.309Z,15.80
2022-12-18T17:37:10.255Z,19.06
2022-12-18T17:47:10.331Z,19.21
2022-12-18T17:57:10.409Z,20.04
2022-12-18T18:07:10.391Z,15.08
2022-12-18T18:17:10.335Z,11.67
2022-12-18T18:27:10.491Z,12.82
2022-12-18T18:37:10.441Z,10.73
2022-12-18T18:47:10.469Z,15.92
2022-12-18T18:57:20.308Z,14.31
2022-12-18T19:07:10.646Z,17.01
2022-12-18T19:17:10.597Z,22.02
